Logs | Chuck Dobbins, Alpine, TX, USA - DM80di
Paging Controls
Log ID Date UTC KHz ID Location S/P ITU Region GSQ LSB USB Sec. Fmt. Power KM Miles Deg
2485525 2024-03-25 0255 223 DAA 'Davee' Fort Belvoir MD USA na FM18kp 2593 1611 61
2485535 2024-03-25 0238 237 EZF 'Shannon' Fredericksburg VA USA na FM18gg 25 2556 1588 62
2485518 2024-03-25 0209 215 YTR Trenton ON CAN na FN14he 25 2772 1723 48
2485513 2024-03-24 0401 204 GB 'Plazz' Buffalo NY USA na FN02ou 2607 1620 50
2485511 2024-03-24 0347 203 YBL Campbell River BC CAN na CO70ha 2837 1763 326
2485514 2024-03-24 0311 206 AP 'Felps' Alpena MI USA na EN84fx 2395 1488 41
2485523 2024-03-23 0426 221 HM Hamilton (Carluke) ON CAN na EN93xc 25 2527 1570 49
2485517 2024-03-23 0417 212 VP 'Sedly' Valparaiso IN USA na EN61nk 1948 1210 46
2485532 2024-03-23 0406 227 SQ 'Pnthr' Connersville IN USA na EM79ks 25 1983 1232 53
2485531 2024-03-23 0358 227 GW 'Aubon' De Kalb County, Auburn IN USA na EN71mh 25 2076 1290 48
2485533 2024-03-23 0354 230 BU 'Boutn' Columbus OH USA na EM89jt 2134 1326 54
2485524 2024-03-23 0350 223 MW 'Onida' Franklin OH USA na EM79un 2038 1266 54
2485520 2024-03-23 0346 219 TO 'Tophr' Toledo OH USA na EN81an 2162 1344 49
2485528 2024-03-23 0329 224 QM Moncton NB CAN na FN76rc 400 3792 2356 51
2485519 2024-03-23 0319 218 YUY Rouyn QC CAN na FN08me 500 2886 1793 39
2485527 2024-03-23 0303 224 BK Baker Lake NU CAN na EP14xh 1000 3814 2370 5
2485530 2024-03-23 0259 227 9X Brooks AB CAN na DO40ap 50 2358 1465 345
2485529 2024-03-23 0253 225 X5 Vegreville AB CAN na DO33xm 25 2662 1654 347
2485522 2024-03-23 0244 221 9A Hanna AB CAN na DO41bp 50 2461 1529 346
2485516 2024-03-23 0227 209 MT 'Chiboo' Chibougamau (Chapais) QC CAN na FN29st 500 3260 2026 40
2485536 2024-03-23 0224 238 K5 Maple Creek SK CAN na DN59gv 2225 1383 349
2485521 2024-03-23 0220 219 ZRS 'Ajax' Regina SK CAN na DO70pl 2239 1391 358
2485512 2024-03-23 0216 204 ZQR 'Findlay' Regina SK CAN na DO70rk 20 2234 1388 358
2485526 2024-03-23 0209 224 BH 'Mc Den' Birmingham AL USA na EM63nm 400 1625 1010 73
2485534 2024-03-23 0151 233 OKS Oshkosh NE USA na DN81tj 25 1234 766 5
2485515 2024-03-23 0141 209 ITR 'Kit Carson' Burlington CO USA na DM89uf 25 995 618 7
2465424 2024-01-28 0150 412 HPS North Ocean 102 / McDermott XOE iw
2465412 2024-01-27 1122 407 CO 'Petey' Colorado Springs CO USA na DM78pq 25 931 579 354
2465432 2024-01-27 1115 417 SLP 'First River' Shelby NC USA na EM95eg 25 2130 1323 69
2465406 2024-01-27 0336 402 CV Carlz Carlsbad NM USA na DM72tg 222 138 343
2465427 2024-01-27 0317 414 LK 'Laang' Louisville KY USA na EM78ed 1870 1162 57
2465426 2024-01-27 0311 414 GL 'Shugr' Goodland KS USA na DM99eh 25 1014 630 10
2465418 2024-01-27 0307 408 JDM 'Wheatfield' Colby KS USA na DM99lm 25 1048 651 12
2465409 2024-01-27 0303 404 HU 'Saltt' Hutchinson KS USA na EM18ac 25 1010 628 29
2465414 2024-01-27 0301 407 HRU Herington KS USA na EM18oq 25 1122 697 32
2465422 2024-01-27 0238 410 GG 'Veels' Longview TX USA na EM22ok 877 545 72
2465425 2024-01-27 0230 412 CMY 'Mc Coy' Sparta WI USA na EN43qw 10 1899 1180 33
2465430 2024-01-27 0227 414 CSS 'Court House' Washington Court House OH USA na EM89ho 25 2112 1312 55
2465419 2024-01-27 0220 408 MW 'Pelly' Moses Lake WA USA na DN07ic 2292 1424 328
2465415 2024-01-27 0217 407 OOC 'Campi' Natchitoches LA USA na EM31lp 25 1026 638 79
2465410 2024-01-27 0149 405 2K Camrose AB CAN na DO33oa 2626 1631 346
2465407 2024-01-27 0148 402 L4 Nipawin SK CAN na DO73xi 200 2557 1589 359
2465431 2024-01-27 0143 417 HQT 'Harnett' Coats NC USA na FM05pk 25 2394 1488 69
2465416 2024-01-27 0139 407 IL 'Airbo' Wilmington OH USA na EM89dl 25 2080 1292 55
2465428 2024-01-27 0123 414 LYI Libby MT USA na DN28gh 100 2232 1387 336
2465429 2024-01-27 0122 414 GRN Gordon NE USA na DN82vt 1392 865 5
2465411 2024-01-27 0118 405 9G Sundre AB CAN na DO21ps 500 2547 1583 342
2465408 2024-01-27 0117 404 MOG Montague CA USA na CN81sr 25 2100 1305 312
2465402 2024-01-27 0115 400 AHQ Wahoo NE USA na EN11qf 1366 849 25
2465417 2024-01-27 0112 407 AQ 'Kooky' Appleton WI USA na EN54tf 25 2047 1272 36
2465433 2024-01-27 0109 419 RYS 'Grosse Ile' Detroit / Grosse Ile MI USA na EN82kc 25 2252 1399 48
2465423 2024-01-27 0106 412 CTZ Clinton NC USA na FM04tx 25 2419 1503 71
2465421 2024-01-27 0105 410 BA 'Clifs' Columbus IN USA na EM79ch 25 1909 1186 53
2465413 2024-01-27 0103 407 BZ 'Bullo' Statesboro GA USA na EM92ek 25 2105 1308 77
2465420 2024-01-27 0103 409 YTA Pembroke ON CAN na FN15jt 25 2864 1780 45
2465405 2024-01-27 0100 401 YPO Peawanuck ON CAN na EO74gx 125 3097 1924 22
2465401 2024-01-27 0058 400 CI 'Koloe' Sault Ste. Marie MI USA na EN76rh 25 2425 1507 37
2465404 2024-01-27 0055 400 ROB 'Robinson' Waco TX USA na EM11lm 649 403 76
2465403 2024-01-27 0055 400 AI 'Addmo' Ardmore OK USA na EM14mf 25 767 476 54
2453647 2023-12-30 0313 344 JL 'Lunns' Joplin MO USA na EM27re 1137 706 45
2453687 2023-12-30 0236 407 ZHU Hauts-Bois / St Hubert (Montreal) QC CAN na FN35hn 95 3122 1940 48
2453681 2023-12-30 0209 371 GW Jarpik Kuujjuarapik QC CAN na FO15cg 500 3443 2139 28
2453634 2023-12-30 0147 240 LE 'Lewie' Auburn (Lewiston) ME USA na FN43tx 3288 2043 53
2453642 2023-12-30 0127 332 PH 'Phurn' Port Huron MI USA na EN82qu 2328 1447 47
2453635 2023-12-30 0121 206 AP 'Felps' Alpena MI USA na EN84fx 2395 1488 41
2453612 2023-12-30 0058 375 DS Searcy AR USA na EM45cc 25 1232 766 61
2453615 2023-12-30 0055 338 TT 'Stutt' Stuttgart AR USA na EM44fm 25 1231 765 64
2453611 2023-12-30 0054 335 BV 'Almnd' Batesville AR USA na EM45cq 25 1258 782 58
2453613 2023-12-30 0052 353 LI 'Lasky' Little Rock AR USA na EM34uq 400 1173 729 62
2453670 2023-12-30 0046 515 PN 'Ponca' Ponca City OK USA na EM16kt 25 942 585 38
2453669 2023-12-30 0040 267 HET Henryetta OK USA na EM15xj 25 909 565 49
2453645 2023-12-30 0037 227 FZ 'Eaves' St. Louis MO USA na EM48rq 1518 943 48
2453692 2023-12-30 0037 335 DR 'Kotti' Del Rio TX USA na DL99mk 284 176 110
2453694 2023-12-30 0036 338 HR 'Sebas' Harlingen TX USA na EL16eh 25 746 463 125
2453688 2023-12-30 0034 353 AB 'Tomhi' Abilene TX USA na EM02dh 438 272 59
2453697 2023-12-30 0031 400 ROB 'Robinson' Waco TX USA na EM11lm 649 403 76
2453667 2023-12-30 0031 400 AI 'Addmo' Ardmore OK USA na EM14mf 25 767 476 54
2453646 2023-12-30 0029 397 JE 'Algoa' Jefferson City MO USA na EM38xn 1404 872 46
2453696 2023-12-30 0024 253 OC 'Nados' Nacogdoches TX USA na EM21pl 25 867 539 79
2453689 2023-12-30 0023 251 AM 'Pande' Amarillo TX USA na DM95cd 400 562 349 18
2453690 2023-12-30 0021 215 CSZ 'Crossroads' Athens TX USA na EM22ab 25 761 473 73
2453648 2023-12-30 0004 326 SU 'Snoop' Saint Louis MO USA na EM48op 25 1498 931 48
2453680 2023-12-29 0511 258 ZSJ Sandy Lake ON CAN na EO33hb 500 2660 1653 15
2453683 2023-12-29 0443 378 RJ Roberval QC CAN na FN38un 500 3333 2071 43
2453627 2023-12-29 0437 410 BA 'Clifs' Columbus IN USA na EM79ch 25 1909 1186 53
2453626 2023-12-29 0428 394 AI 'Video' Anderson IN USA na EN70fb 25 1966 1222 51
2453633 2023-12-29 0422 385 UWL New Castle IN USA na EM79iv 25 1976 1228 52
2453628 2023-12-29 0419 388 CFJ Crawfordsville IN USA na EM69nx 25 1862 1157 50
2453630 2023-12-29 0416 365 JN 'Balll' Muncie IN USA na EN70ie 1991 1237 51
2453685 2023-12-29 0409 338 YPX Puvirnituq QC CAN na FP10ib 500 3842 2387 23
2453649 2023-12-29 0358 326 FC Fredericton NB CAN na FN65qw 1600 3632 2256 50
2453672 2023-12-29 0344 236 OW Ramsayville (Ottawa) ON CAN na FN25fi 60 2958 1838 47
2453671 2023-12-29 0340 221 HM Hamilton (Carluke) ON CAN na EN93xc 25 2527 1570 49
2453682 2023-12-29 0337 209 MT 'Chiboo' Chibougamau (Chapais) QC CAN na FN29st 500 3260 2026 40
2453636 2023-12-29 0321 400 CI 'Koloe' Sault Ste. Marie MI USA na EN76rh 25 2425 1507 37
2453632 2023-12-29 0300 227 SQ 'Pnthr' Connersville IN USA na EM79ks 25 1983 1232 53
2453674 2023-12-29 0235 200 YAQ Kasabonika ON CAN na EO53qm 50 2849 1770 20
2453679 2023-12-29 0224 397 ZHA Ancaster (Hamilton) ON CAN na EN93xe 14 2531 1573 49
2453631 2023-12-29 0219 331 JV 'Catch' Jeffersonville IN USA na EM78dl 1877 1166 56
2453686 2023-12-29 0205 218 YUY Rouyn QC CAN na FN08me 500 2886 1793 39
2453644 2023-12-29 0201 365 TV 'Gwenn' Traverse City MI USA na EN74gr 30 2258 1403 39
2453638 2023-12-29 0159 359 GYG Grayling MI USA na EN74or 25 2299 1429 40
2453657 2023-12-29 0156 362 AK Akron OH USA na EN91hb 2331 1449 53
2453675 2023-12-29 0148 382 YPL Pickle Lake ON CAN na EO41vk 500 2595 1612 21
2453629 2023-12-29 0147 227 GW 'Aubon' De Kalb County, Auburn IN USA na EN71mh 25 2076 1290 48
2453639 2023-12-29 0146 382 IRS Sturgis MI USA na EN71gt 25 2069 1286 47
2453676 2023-12-29 0137 401 YPO Peawanuck ON CAN na EO74gx 125 3097 1924 22
2453650 2023-12-29 0131 224 QM Moncton NB CAN na FN76rc 400 3792 2356 51
2453643 2023-12-29 0129 419 RYS 'Grosse Ile' Detroit / Grosse Ile MI USA na EN82kc 25 2252 1399 48
2453655 2023-12-29 0059 250 YMH Mary's Harbour NL CAN na GO22ch 1000 4571 2840 43
2453651 2023-12-29 0052 212 SJ Saint John NB CAN na FN75cj 1000 3679 2286 52
2453656 2023-12-29 0047 257 YR 'Goose' Goose Bay NL CAN na FO93ti 4306 2676 40
2453652 2023-12-29 0043 304 ZQM Riverview (Moncton) NB CAN na FN76oa 100 3771 2343 51
2453653 2023-12-29 0041 397 ZST 'Alpine' Saint John NB CAN na FN75af 50 3662 2275 52
2453654 2023-12-29 0013 281 CA Cartwright NL CAN na GO13lr 1000 4529 2814 41
2453620 2023-12-28 0511 257 FWC 'Wayne County' Fairfield IL USA na EM58tj 25 1664 1034 53
2453663 2023-12-28 0443 423 PCW Port Clinton OH USA na EN81nm 25 2240 1392 50
2453660 2023-12-28 0426 407 IL 'Airbo' Wilmington OH USA na EM89dl 25 2080 1292 55
2453618 2023-12-28 0426 407 CM 'Veals' Champaign / Urbana IL USA na EM59vx 1765 1097 48
2453617 2023-12-28 0422 397 CIR Cairo IL USA na EM57jb 25 1532 952 57
2453624 2023-12-28 0414 382 SP 'Huskk' Springfield IL USA na EM59cs 25 1640 1019 46
2453661 2023-12-28 0410 376 LC 'Pickl' Columbus OH USA na EM89nv 25 2164 1344 54
2453622 2023-12-28 0408 375 LQ 'Licol' Springfield IL USA na EM59ev 1659 1031 46
2453625 2023-12-28 0357 365 SYZ Shelbyville IL USA na EM59nj 25 1682 1045 49
2453684 2023-12-28 0327 351 YKQ Waskaganish QC CAN na FO01pl 500 3120 1939 34
2453678 2023-12-28 0321 346 YXL Sioux Lookout ON CAN na EO40bc 1000 2408 1496 20
2453691 2023-12-28 0314 341 DNI Denison TX USA na EM13pt 25 763 474 57
2453623 2023-12-28 0309 356 PI 'Tungg' Peoria IL USA na EN50eo 40 1706 1060 44
2453640 2023-12-28 0305 336 MA 'Wexford' Cadillac MI USA na EN74ff 2218 1378 40
2453621 2023-12-28 0303 334 LH 'Egrow' Bloomington IL USA na EN50nn 1754 1090 45
2453673 2023-12-28 0301 332 QT Thunder Bay ON CAN na EN58gi 1000 2338 1453 27
2453619 2023-12-28 0301 332 DN 'Julip' Danville IL USA na EN60fg 1830 1137 48
2453677 2023-12-28 0259 328 YTL Big Trout Lake ON CAN na EO53bt 1000 2835 1762 19
2453616 2023-12-28 0256 329 AAA 'Abraham' Lincoln IL USA na EN50hd 25 1693 1052 46
2453658 2023-12-28 0250 315 AT 'Bruny' Dayton OH USA na EM79tu 2045 1270 53
2453659 2023-12-28 0241 299 HW 'Cubla' Wilmington OH USA na EM89bi 2061 1281 55
2453665 2023-12-28 0218 269 TII Tiffin OH USA na EN81jc 2194 1363 51
2453668 2023-12-28 0216 275 GUY Guymon OK USA na DM96fq 25 732 455 15
2453637 2023-12-28 0214 263 GR 'Knobs' Grand Rapids MI USA na EN72hv 2141 1330 44
2453662 2023-12-28 0214 263 LQL 'Lakeland' Willoughby OH USA na EN91hq 25 2360 1466 51
2453693 2023-12-28 0208 257 DT 'Pinck' Denton TX USA na EM13jg 25 694 431 60
2453641 2023-12-28 0208 257 MB 'Olste' Saginaw MI USA na EN73vl 2256 1402 44
2453666 2023-12-28 0202 250 UGS 'University' Athens / Albany OH USA na EM89wg 25 2198 1366 57
2453664 2023-12-28 0159 245 PWF 'Sportys' Batavia OH USA na EM79vb 25 2022 1256 56
2453695 2023-12-28 0027 326 MA 'Farly' Midland TX USA na DM81ux 400 225 140 36
2453614 2023-12-20 0059 379 RUE Russellville AR USA na EM35kg 25 1129 702 58
2373815 2023-01-30 1106 220 HLE Hailey ID USA na DN23vh 50 1714 1065 330
2373839 2023-01-30 0408 237 EZF 'Shannon' Fredericksburg VA USA na FM18gg 25 2556 1588 62
2373835 2023-01-30 0404 234 EQQ 'Coweta County' Newnan GA USA na EM73pg 25 1822 1132 74
2373823 2023-01-30 0357 224 QM Moncton NB CAN na FN76rc 400 3792 2356 51
2373818 2023-01-30 0354 221 RP 'Wickr' Rice Lake Airport, Carl's Field WI USA na EN45ch 1960 1218 28
2373810 2023-01-30 0349 215 YTR Trenton ON CAN na FN14he 25 2772 1723 48
2373825 2023-01-30 0338 225 YIK Ivujivik QC CAN na FP12aj 100 4014 2494 19
2373838 2023-01-29 1144 236 ZHT 'Forks' Winnipeg MB CAN na EN19ku 50 2237 1390 12
2373807 2023-01-29 1124 212 CGL Coghlan Island AK ALS na CO28pi 3901 2424 331
2373809 2023-01-29 1113 215 ZWW 'Boine' Muddywater (Winnipeg) MB CAN na EN19it 13 2229 1385 12
2373798 2023-01-29 1107 206 XBE Bearskin Lake ON CAN na EO43lx 25 2817 1750 17
2373793 2023-01-29 1107 201 ZWN 'Downs' Winnipeg (Snowhill) MB CAN na EN19ix 50 2247 1396 12
2373796 2023-01-29 1106 204 ZQR 'Findlay' Regina SK CAN na DO70rk 20 2234 1388 358
2373814 2023-01-29 0450 219 ZRS 'Ajax' Regina SK CAN na DO70pl 2239 1391 358
2373829 2023-01-29 0441 227 TNZ 'Lawrence Co.' Walnut Ridge AR USA na EM46me 25 1349 838 57
2373822 2023-01-29 0437 224 BH 'Mc Den' Birmingham AL USA na EM63nm 400 1625 1010 73
2373804 2023-01-29 0435 211 AN 'Bogga' Anniston AL USA na EM73am 25 1709 1062 73
2373803 2023-01-29 0433 209 ITR 'Kit Carson' Burlington CO USA na DM89uf 25 995 618 7
2373834 2023-01-28 1229 234 TX 'Tecco' Texarkana AR USA na EM33am 25 985 612 66
2373837 2023-01-28 1225 236 JB 'Laberge' Whitehorse YT CAN na CP20kw 4105 2551 335
2373833 2023-01-28 1222 233 ALJ Orca Bay - Hinchinbrook Island AK ALS na BP60ql 1000 4593 2854 329
2373802 2023-01-28 1218 209 CYT Yakataga AK ALS na BP80sc 1000 4373 2717 330
2373812 2023-01-28 1213 218 PR Prince Rupert BC CAN na CO44sg 500 3409 2118 328
2373830 2023-01-28 1149 230 BU 'Boutn' Columbus OH USA na EM89jt 2134 1326 54
2373828 2023-01-28 1144 227 GW 'Aubon' De Kalb County, Auburn IN USA na EN71mh 25 2076 1290 48
2373827 2023-01-28 1137 227 SQ 'Pnthr' Connersville IN USA na EM79ks 25 1983 1232 53
2373819 2023-01-28 1134 223 MW 'Onida' Franklin OH USA na EM79un 2038 1266 54
2373817 2023-01-28 0417 221 QU Grande Prairie AB CAN na DO05od 50 3004 1867 340
2373840 2023-01-28 0415 238 K5 Maple Creek SK CAN na DN59gv 2225 1383 349
2373832 2023-01-28 0408 233 BR Brandon MB CAN na DN99xv 25 2194 1363 7
2373826 2023-01-28 0404 227 9X Brooks AB CAN na DO40ap 50 2358 1465 345
2373824 2023-01-28 0402 225 X5 Vegreville AB CAN na DO33xm 25 2662 1654 347
2373820 2023-01-28 0400 224 BK Baker Lake NU CAN na EP14xh 1000 3814 2370 5
2373805 2023-01-28 0357 212 YGX Gillam MB CAN na EO26pi 2975 1849 11
2373795 2023-01-28 0355 203 YBL Campbell River BC CAN na CO70ha 2837 1763 326
2373794 2023-01-28 0354 203 ZKI Kitimat BC CAN na CO54pb 3308 2056 330
2373801 2023-01-28 0353 209 SYS 'Stoystown' Somerset PA USA na FN00nc 25 2491 1548 57
2373791 2023-01-28 0352 200 YJ Sydney BC CAN na CN88hp 100 2626 1632 326
2373836 2023-01-28 0350 236 OW Ramsayville (Ottawa) ON CAN na FN25fi 60 2958 1838 47
2373821 2023-01-28 0348 224 DN Dauphin MB CAN na DO91xc 25 2327 1446 6
2373813 2023-01-28 0345 219 TO 'Tophr' Toledo OH USA na EN81an 2162 1344 49
2373800 2023-01-28 0342 209 MT 'Chiboo' Chibougamau (Chapais) QC CAN na FN29st 500 3260 2026 40
2373799 2023-01-28 0340 207 YNE Norway House MB CAN na EO13bx 1000 2668 1658 8
2373797 2023-01-28 0340 206 AP 'Felps' Alpena MI USA na EN84fx 2395 1488 41
2373792 2023-01-28 0338 200 YAQ Kasabonika ON CAN na EO53qm 50 2849 1770 20
2373816 2023-01-28 0331 221 9A Hanna AB CAN na DO41bp 50 2461 1529 346
2373811 2023-01-28 0323 218 YUY Rouyn QC CAN na FN08me 500 2886 1793 39
2373831 2023-01-27 1945 230 BNZ Abbeville LA USA na EL39wx 25 1114 692 89
2373808 2023-01-27 1939 215 CSZ 'Crossroads' Athens TX USA na EM22ab 25 761 473 73
2373806 2023-01-27 1934 212 LIU Littlefield TX USA na DM83tw 25 418 260 17
2365996 2022-12-31 1217 397 SB 'Petis' San Bernardino CA USA na DM14hb 50 1349 838 291
2366021 2022-12-31 1145 397 JE 'Algoa' Jefferson City MO USA na EM38xn 1404 872 46
2366017 2022-12-31 1140 379 DL 'Pykla' Duluth MN USA na EN36tu 2077 1291 24
2365999 2022-12-31 0359 344 JA 'Dinns' Jacksonville FL USA na EM90cl 400 2098 1304 84
2366039 2022-12-31 0351 521 GM 'Judky' Greenville SC USA na EM84ts 2054 1276 70
2366037 2022-12-31 0331 209 SYS 'Stoystown' Somerset PA USA na FN00nc 25 2491 1548 57
2366045 2022-12-30 1132 237 EZF 'Shannon' Fredericksburg VA USA na FM18gg 25 2556 1588 62
2366014 2022-12-30 1119 332 DC 'Oxonn' Oxon Hill (Fort Foote Park) MD USA na FM18ls 2603 1617 61
2366013 2022-12-30 1109 400 NHK 'Patuxent' Patuxent River MD USA na FM18tg 2648 1645 63
2366048 2022-12-29 0406 284 RQY 'Randolph Co' Elkins WV USA na FM08bv 50 2369 1472 59
2366036 2022-12-29 0354 328 BZJ 'Bellgrove' Indiantown Gap PA USA na FN10rk 2691 1672 57
2366065 2022-12-28 1117 356 ZF Yellowknife NT CAN na DP22sj 1000 3646 2265 350
2365992 2022-12-28 1117 338 RYN 'Ryan' Tucson AZ USA na DM42kd 400 732 455 287
2366067 2022-12-28 1111 329 YEK Arviat NU CAN na EP21xc 500 3492 2170 8
2366066 2022-12-28 1101 378 UX Hall Beach NU CAN na EP98is 400 4508 2801 12
2366062 2022-12-28 0443 407 ZHU Hauts-Bois / St Hubert (Montreal) QC CAN na FN35hn 95 3122 1940 48
2366025 2022-12-28 0429 363 RNB 'Rainbow' Millville NJ USA na FM29kk 50 2781 1728 60
2366050 2022-12-28 0421 395 OS 'Pober' Oshkosh WI USA na EN53ru 2009 1248 37
2366049 2022-12-28 0419 407 AQ 'Kooky' Appleton WI USA na EN54tf 25 2047 1272 36
2366020 2022-12-27 0358 248 CG 'Dutch' Cape Girardeau MO USA na EM57dg 1502 933 55
2366006 2022-12-27 0350 517 FN 'Hillz' Clinton IA USA na EN41ts 1742 1082 39
2365998 2022-12-27 0344 260 MTH Marathon FL USA na EL94kr 100 2308 1434 100
2365995 2022-12-26 1220 404 MOG Montague CA USA na CN81sr 25 2100 1305 312
2366047 2022-12-26 1217 408 MW 'Pelly' Moses Lake WA USA na DN07ic 2292 1424 328
2366046 2022-12-26 1215 382 AW 'Waton' Arlington WA USA na CN88wb 50 2515 1563 326
2366056 2022-12-26 1211 266 VR Vancouver BC CAN na CN89le 50 2651 1647 327
2366068 2022-12-26 1207 329 PJ Robinson (Whitehorse) YT CAN na CP20nk 100 4058 2522 334
2366055 2022-12-26 1205 257 LW Kelowna BC CAN na DO00hb 50 2552 1586 333
2366058 2022-12-26 1159 375 BM Balmoral MB CAN na EO10id 25 2265 1407 11
2366035 2022-12-26 1157 266 SLE 'Turno' Salem OR USA na CN84mu 50 2328 1447 319
2366064 2022-12-26 1156 347 PA Prince Albert SK CAN na DO73cf 25 2549 1584 356
2366063 2022-12-26 1153 257 XE Saskatoon SK CAN na DO62oe 25 2441 1516 354
2366010 2022-12-26 1150 340 GN 'Brindl' Lexington KY USA na EM78rc 1956 1215 58
2366054 2022-12-26 1147 292 ZET Devon (Edmonton Intl Apt) AB CAN na DO33di 25 2682 1666 345
2366053 2022-12-26 1144 215 ZAB 'Leduc' Edmonton (Intl Apt) AB CAN na DO33gf 25 2663 1655 345
2366009 2022-12-26 1144 236 BW 'Noora' Bowling Green KY USA na EM36fv 1188 738 49
2366034 2022-12-26 1141 296 LGD La Grande OR USA na DN15ai 25 2078 1291 327
2366022 2022-12-26 1138 362 RPX Round Up MT USA na DN56rl 25 1841 1144 348
2366019 2022-12-26 1127 420 TU 'Veron' Tupelo MS USA na EM54oe 25 1464 910 69
2366018 2022-12-26 1123 349 GW 'Teock' Greenwood MS USA na EM43wo 25 1330 826 70
2365997 2022-12-26 0527 209 ITR 'Kit Carson' Burlington CO USA na DM89uf 25 995 618 7
2366052 2022-12-26 0517 293 TOR Torrington WY USA na DN72wb 25 1302 809 358
2366051 2022-12-26 0515 280 GYZ 'Camp Guernsey' Guernsey WY USA na DN72pf 50 1323 822 356
2366026 2022-12-26 0511 278 CEP 'Capitan' Ruidoso NM USA na DM73hl 25 381 237 336
2366023 2022-12-26 0509 356 ODX Ord NE USA na EN01mo 25 1321 821 17
2366057 2022-12-26 0505 224 DN Dauphin MB CAN na DO91xc 25 2327 1446 6
2366003 2022-12-26 0401 257 FWC 'Wayne County' Fairfield IL USA na EM58tj 25 1664 1034 53
2366041 2022-12-26 0359 394 MKL 'Mersy' Jackson TN USA na EM55mm 25 1489 925 63
2366002 2022-12-26 0358 240 CJ 'Calde' Springfield IL USA na EM59et 1654 1028 46
2366040 2022-12-26 0350 341 CQN 'Daisy' Chattanooga TN USA na EM75kd 50 1814 1127 68
2366031 2022-12-26 0348 376 LC 'Pickl' Columbus OH USA na EM89nv 25 2164 1344 54
2366030 2022-12-26 0346 250 UGS 'University' Athens / Albany OH USA na EM89wg 25 2198 1366 57
2366005 2022-12-26 0343 385 UWL New Castle IN USA na EM79iv 25 1976 1228 52
2366008 2022-12-26 0343 332 IC 'Piche' Wichita KS USA na EM17gn 25 987 613 34
2366016 2022-12-26 0340 382 IRS Sturgis MI USA na EN71gt 25 2069 1286 47
2366004 2022-12-26 0337 227 SQ 'Pnthr' Connersville IN USA na EM79ks 25 1983 1232 53
2366015 2022-12-26 0336 400 CI 'Koloe' Sault Ste. Marie MI USA na EN76rh 25 2425 1507 37
2366061 2022-12-26 0330 317 ZMX Janvier / Mirabel (Montreal) QC CAN na FN35ar 20 3088 1919 48
2366060 2022-12-26 0328 516 YWA Petawawa ON CAN na FN15iv 25 2863 1779 45
2366059 2022-12-26 0327 397 ZHA Ancaster (Hamilton) ON CAN na EN93xe 14 2531 1573 49
2366001 2022-12-26 0323 353 VV 'Junne' Greensboro GA USA na EM83lp 1979 1230 73
2366000 2022-12-26 0322 242 LKG 'Lindbergh' Americus GA USA na EM72we 25 1870 1162 78
2366027 2022-12-26 0259 402 CV Carlz Carlsbad NM USA na DM72tg 222 138 343
2366012 2022-12-26 0253 407 OOC 'Campi' Natchitoches LA USA na EM31lp 25 1026 638 79
2366024 2022-12-26 0248 314 VTN Valentine NE USA na DN92ru 25 1418 881 10
2366044 2022-12-26 0241 351 MSQ Culpeper VA USA na FM18bk 25 2524 1568 62
2366038 2022-12-26 0233 278 EOE 'Enoree' Newberry SC USA na EM94eh 25 2116 1315 72
2366029 2022-12-26 0226 379 BRA 'Broad River' Asheville NC USA na EM85sg 100 2055 1277 68
2366028 2022-12-26 0219 254 LLW 'Woodville' Elizabeth City NC USA na FM16ug 50 2621 1629 68
2365994 2022-12-26 0212 375 DS Searcy AR USA na EM45cc 25 1232 766 61
2365991 2022-12-26 0206 352 BVG 'Boll Weevil' Enterprise AL USA na EM71ai 1696 1054 81
2365990 2022-12-26 0202 211 AN 'Bogga' Anniston AL USA na EM73am 25 1709 1062 73
2366011 2022-12-25 2010 230 BNZ Abbeville LA USA na EL39wx 25 1114 692 89
2365993 2022-12-25 1955 385 HO 'Hossy' Hot Springs AR USA na EM34jk 50 1085 674 62
2366007 2022-12-25 1940 230 NRN Norton KS USA na EM09bu 25 1112 691 17
2366033 2022-12-25 1939 275 GUY Guymon OK USA na DM96fq 25 732 455 15
2366032 2022-12-25 1939 267 HET Henryetta OK USA na EM15xj 25 909 565 49
2366043 2022-12-25 1937 341 DNI Denison TX USA na EM13pt 25 763 474 57
2366042 2022-12-25 1936 326 MA 'Farly' Midland TX USA na DM81ux 400 225 140 36
2363886 2022-12-18 0438 365 TV 'Gwenn' Traverse City MI USA na EN74gr 30 2258 1403 39
2355686 2022-11-28 1113 392 AGZ Wagner SD USA na EN03ub 25 1492 927 17
2355692 2022-11-27 1152 395 CA 'Harvs' Newton KS USA na EM18id 25 1047 651 32
2355687 2022-11-27 1044 392 FMZ 'Beklof' Fairmont NE USA na EN10fo 25 1268 788 24
2355691 2022-11-27 0341 394 SP 'Snore' Spencer IA USA na EN23if 1614 1003 25
2355681 2022-11-27 0335 390 BR 'Burns' Burlington IL USA na EN40kp 25 1611 1001 41
2355685 2022-11-26 1115 391 PLX 'Palestine' Robinson IL USA na EM69ea 25 1754 1090 52
2355682 2022-11-26 1108 390 HBT Sand Point (Borland) AK ALS na AO95rh 5207 3235 319
2355695 2022-11-26 1101 397 SB 'Petis' San Bernardino CA USA na DM14hb 50 1349 838 291
2355690 2022-11-26 0425 394 RWO 'Woody Island' Kodiak AK ALS na BO37us 4776 2967 324
2355696 2022-11-26 0409 397 ZHA Ancaster (Hamilton) ON CAN na EN93xe 14 2531 1573 49
2355693 2022-11-26 0407 395 OS 'Pober' Oshkosh WI USA na EN53ru 2009 1248 37
2355694 2022-11-26 0407 397 CIR Cairo IL USA na EM57jb 25 1532 952 57
2355678 2022-11-26 0354 388 CDX 'Cumberland River' Somerset KY USA na EM76px 25 1902 1182 62
2355684 2022-11-26 0353 391 EEF 'Elephant' Sisters Island AK ALS na CO28ie 3916 2433 331
2355677 2022-11-26 0351 386 HAU 'Hauser' Helena MT USA na DN46cn 25 1932 1201 341
2355675 2022-11-26 0350 385 OCC 'Ocean Cape' Yakutat AK ALS na CO09dn 4211 2617 330
2355697 2022-11-26 0344 397 ZSS Yellowhead (Saskatoon) SK CAN na DO62pf 25 2445 1519 355
2355698 2022-11-26 0343 398 YOD Cold Lake AB CAN na DO44uj 25 2724 1693 350
2355680 2022-11-26 0342 389 YWB Kelowna BC CAN na DN09et 2540 1578 332
2355689 2022-11-26 0338 394 MKL 'Mersy' Jackson TN USA na EM55mm 25 1489 925 63
2355683 2022-11-26 0336 391 DDP San Juan / Dorado / Luiz Munoz Marin Intl PR PTR ca FK68tl 2000 3982 2474 100
2355688 2022-11-26 0336 393 BR 'Depoo' Brownsville TX USA na EL15fx 776 482 127
2355674 2022-11-26 0332 385 LN 'Potts' Lincoln NE USA na EN10or 45 1311 815 26
2355672 2022-11-26 0331 385 CPZ 'Chaparrosa Ranch' La Pryor TX USA na DL98xv 25 390 242 113
2355679 2022-11-26 0328 388 CFJ Crawfordsville IN USA na EM69nx 25 1862 1157 50
2355673 2022-11-26 0327 385 EMR 'Emory' Augusta GA USA na EM93al 400 2078 1291 74
2355676 2022-11-26 0326 385 UWL New Castle IN USA na EM79iv 25 1976 1228 52
2354502 2022-11-25 0328 405 8888 William P. Gwinn Airport - Jupiter FL USA na EL96tv 2305 1432 93
2354501 2022-11-22 0437 365 TOI 'Blood' Troy AL USA na EM61wt 1680 1044 79
2354500 2022-11-22 0355 338 CYR 'Caidy' Cairo GA USA na EM70wv 25 1872 1163 83
2354499 2022-11-19 0415 245 GTP 'Patten' Thomasville GA USA na EM80cw 1904 1183 82
2352209 2022-11-16 0407 326 BKT Blackstone VA USA na FM07xd 2481 1542 65
2352208 2022-11-16 0348 410 SLO UNID XUN xx
2352207 2022-11-13 1202 401 LA 'Earle' Lafayette IN USA na EN60lk 25 1876 1166 48
2350528 2022-11-10 1218 245 HNS Haines AK ALS na CO29gf 250 3996 2483 332
2350527 2022-11-07 0340 326 UOT 'Union County' Union SC USA na EM94eq 25 2121 1318 71
2350526 2022-11-05 1054 245 HU 'Yinno' Terre Haute IN USA na EM69hj 1793 1114 51
2350525 2022-11-05 1047 242 LE 'Blayd' Lexington KY USA na EM77qx 1945 1208 59
2348807 2022-11-03 0301 368 EU 'Murey' Murray KY USA na EM56ur 25 1592 989 59
2348739 2022-11-02 1116 315 AT 'Bruny' Dayton OH USA na EM79tu 2045 1270 53
2348738 2022-11-02 1110 316 FFC 'Pecat' Peachtree City GA USA na EM73sh 1845 1146 74
2346834 2022-10-31 1012 419 TX 'Gwnet' Lawrenceville GA USA na EM84ba 25 1907 1185 72
2346811 2022-10-31 0313 402 L4 Nipawin SK CAN na DO73xi 200 2557 1589 359
2346809 2022-10-31 0305 401 Y8 Drummondville QC CAN na FN35tu 126 3207 1992 48
2346825 2022-10-31 0237 410 GG 'Veels' Longview TX USA na EM22ok 877 545 72
2346816 2022-10-30 1037 407 AQ 'Kooky' Appleton WI USA na EN54tf 25 2047 1272 36
2346802 2022-10-30 1001 400 AI 'Addmo' Ardmore OK USA na EM14mf 25 767 476 54
2346810 2022-10-30 0305 402 CV Carlz Carlsbad NM USA na DM72tg 222 138 343
2346806 2022-10-30 0302 400 ROB 'Robinson' Waco TX USA na EM11lm 649 403 76
2346815 2022-10-30 0227 405 9G Sundre AB CAN na DO21ps 500 2547 1583 342
2346817 2022-10-30 0217 407 BZ 'Bullo' Statesboro GA USA na EM92ek 25 2105 1308 77
2346826 2022-10-29 1126 412 CMY 'Mc Coy' Sparta WI USA na EN43qw 10 1899 1180 33
2346822 2022-10-29 1124 408 JDM 'Wheatfield' Colby KS USA na DM99lm 25 1048 651 12
2346828 2022-10-29 1119 413 MC 'Ferni' Mc Comb MS USA na EM41rg 25 1261 783 82
2346832 2022-10-29 1114 416 LB 'Panbe' North Platte NE USA na DN91rb 50 1224 761 12
2346820 2022-10-29 1108 407 OOC 'Campi' Natchitoches LA USA na EM31lp 25 1026 638 79
2346813 2022-10-29 1104 404 XCR 'Ripley' Little Falls MN USA na EN26tb 50 1924 1196 22
2346803 2022-10-29 1103 400 CI 'Koloe' Sault Ste. Marie MI USA na EN76rh 25 2425 1507 37
2346829 2022-10-29 1053 414 GRN Gordon NE USA na DN82vt 1392 865 5
2346833 2022-10-29 1053 419 GB 'Babsy' Great Bend KS USA na EM08ng 25 985 612 25
2346808 2022-10-29 1047 401 YPO Peawanuck ON CAN na EO74gx 125 3097 1924 22
2346830 2022-10-29 1044 414 LK 'Laang' Louisville KY USA na EM78ed 1870 1162 57
2346819 2022-10-29 1027 407 IL 'Airbo' Wilmington OH USA na EM89dl 25 2080 1292 55
2346801 2022-10-29 1021 400 AHQ Wahoo NE USA na EN11qf 1366 849 25
2346804 2022-10-29 0319 400 NHK 'Patuxent' Patuxent River MD USA na FM18tg 2648 1645 63
2346827 2022-10-29 0315 412 CTZ Clinton NC USA na FM04tx 25 2419 1503 71
2346824 2022-10-29 0312 409 YTA Pembroke ON CAN na FN15jt 25 2864 1780 45
2346821 2022-10-29 0310 407 ZHU Hauts-Bois / St Hubert (Montreal) QC CAN na FN35hn 95 3122 1940 48
2346805 2022-10-29 0306 400 OHY 'Coney' Cordele GA USA na EM81bx 25 1893 1176 79
2346835 2022-10-29 0253 419 RYS 'Grosse Ile' Detroit / Grosse Ile MI USA na EN82kc 25 2252 1399 48
2346831 2022-10-29 0244 414 LYI Libby MT USA na DN28gh 100 2232 1387 336
2346814 2022-10-29 0239 405 2K Camrose AB CAN na DO33oa 2626 1631 346
2346812 2022-10-29 0238 404 MOG Montague CA USA na CN81sr 25 2100 1305 312
2346807 2022-10-29 0236 400 1L Fort MacKay / Firebag AB CAN na DO47mg 3045 1892 351
2346818 2022-10-29 0221 407 CO 'Petey' Colorado Springs CO USA na DM78pq 25 931 579 354
2346823 2022-10-28 0242 408 MW 'Pelly' Moses Lake WA USA na DN07ic 2292 1424 328
2344348 2022-10-21 0946 391 EEF 'Elephant' Sisters Island AK ALS na CO28ie 3916 2433 331
2344349 2022-10-21 0933 414 IME 'Mount Edgecumbe' Sitka AK ALS na CO27hb 3844 2388 329
2344350 2022-10-21 0915 529 SQM 'Sumner Strait' Level Island AK ALS na CO36kl 400 3696 2296 330
2338246 2022-09-25 1052 384 JB 'Jigel' Lumberton NC USA na FM04kn 2347 1458 72
2338238 2022-09-25 0252 379 BRA 'Broad River' Asheville NC USA na EM85sg 100 2055 1277 68
2338233 2022-09-25 0246 378 UX Hall Beach NU CAN na EP98is 400 4508 2801 12
2338236 2022-09-25 0236 379 YPQ Peterborough ON CAN na FN04sf 25 2697 1675 48
2338234 2022-09-25 0233 378 RJ Roberval QC CAN na FN38un 500 3333 2071 43
2338224 2022-09-25 0229 373 2Q Mont-Laurier QC CAN na FN26go 25 3024 1879 45
2338242 2022-09-24 1050 382 SP 'Huskk' Springfield IL USA na EM59cs 25 1640 1019 46
2338237 2022-09-24 1049 379 RUE Russellville AR USA na EM35kg 25 1129 702 58
2338235 2022-09-24 1048 379 DL 'Pykla' Duluth MN USA na EN36tu 2077 1291 24
2338231 2022-09-24 1047 376 LC 'Pickl' Columbus OH USA na EM89nv 25 2164 1344 54
2338230 2022-09-24 1043 376 YAG Fort Frances ON CAN na EN38fq 40 2212 1375 20
2338227 2022-09-24 1040 375 LQ 'Licol' Springfield IL USA na EM59ev 1659 1031 46
2338228 2022-09-24 1040 375 DS Searcy AR USA na EM45cc 25 1232 766 61
2338221 2022-09-24 1037 371 AZ 'Austn' Vicksburg MI USA na EN72fd 2083 1294 46
2338241 2022-09-24 1029 382 YPW Powell River BC CAN na CN79ru 2780 1728 327
2338243 2022-09-24 1026 382 AW 'Waton' Arlington WA USA na CN88wb 50 2515 1563 326
2338226 2022-09-24 1023 375 BM Balmoral MB CAN na EO10id 25 2265 1407 11
2338232 2022-09-24 0339 378 AP Active Pass (Mayne Island) BC CAN na CN88iu 25 2638 1639 326
2338222 2022-09-24 0336 371 GW Jarpik Kuujjuarapik QC CAN na FO15cg 500 3443 2139 28
2338244 2022-09-24 0332 382 YPL Pickle Lake ON CAN na EO41vk 500 2595 1612 21
2338239 2022-09-24 0331 380 GC 'Deryk' Gillette WY USA na DN74fg 25 1556 967 354
2338229 2022-09-24 0330 376 K2 Olds-Didsbury AB CAN na DO21wr 2526 1570 343
2338225 2022-09-24 0329 374 EX Rutland (Kelowna) BC CAN na DN09hw 2541 1579 333
2338223 2022-09-24 0328 372 YCO Coppermine / Kugluktuk NU CAN na DP27kt 1000 4232 2629 353
2338245 2022-09-24 0318 383 CNP Chappell NE USA na DN81sb 25 1196 743 5
2338240 2022-09-24 0247 382 YE Fort Nelson BC CAN na CO88pt 100 3476 2160 341
2303377 2022-03-27 1112 395 CA 'Harvs' Newton KS USA na EM18id 25 1047 651 32
2303365 2022-03-27 1105 323 OUK Calhoun GA USA na EM74mj 24 1814 1127 70
2303399 2022-03-27 1101 395 OS 'Pober' Oshkosh WI USA na EN53ru 2009 1248 37
2303389 2022-03-27 1056 392 FMZ 'Beklof' Fairmont NE USA na EN10fo 25 1268 788 24
2303351 2022-03-27 1052 376 YAG Fort Frances ON CAN na EN38fq 40 2212 1375 20
2303342 2022-03-27 1048 375 BM Balmoral MB CAN na EO10id 25 2265 1407 11
2303370 2022-03-27 1042 334 LH 'Egrow' Bloomington IL USA na EN50nn 1754 1090 45
2303350 2022-03-27 1039 328 YTL Big Trout Lake ON CAN na EO53bt 1000 2835 1762 19
2303388 2022-03-27 1034 314 VTN Valentine NE USA na DN92ru 25 1418 881 10
2303374 2022-03-27 1024 341 FO 'Barro' Fort Dodge IA USA na EN22um 25 1591 989 29
2303340 2022-03-27 1021 325 YJQ Bella Bella (Campbell Island) BC CAN na CO52we 3140 1951 327
2303396 2022-03-27 1017 302 HO 'Beady' Huron SD USA na EN04tk 25 1634 1015 15
2303362 2022-03-27 0414 379 RUE Russellville AR USA na EM35kg 25 1129 702 58
2303390 2022-03-27 0409 305 RO 'Topan' Roswell NM USA na DM73si 400 341 212 348
2303403 2022-03-27 0409 391 DDP San Juan / Dorado / Luiz Munoz Marin Intl PR PTR ca FK68tl 2000 3982 2474 100
2303345 2022-03-27 0401 350 RB Resolute Bay NU CAN na EQ24mr 3000 4958 3081 3
2303372 2022-03-27 0343 385 UWL New Castle IN USA na EM79iv 25 1976 1228 52
2303378 2022-03-27 0334 340 GN 'Brindl' Lexington KY USA na EM78rc 1956 1215 58
2303371 2022-03-27 0326 388 CFJ Crawfordsville IN USA na EM69nx 25 1862 1157 50
2303398 2022-03-27 0319 371 RYV 'Rock River' Watertown WI USA na EN53pe 25 1949 1211 38
2303361 2022-03-26 1118 385 HO 'Hossy' Hot Springs AR USA na EM34jk 50 1085 674 62
2303357 2022-03-26 1113 394 RWO 'Woody Island' Kodiak AK ALS na BO37us 4776 2967 324
2303397 2022-03-26 1101 365 DPY Deer Park WA USA na DN17gx 50 2282 1418 333
2303369 2022-03-26 1053 382 SP 'Huskk' Springfield IL USA na EM59cs 25 1640 1019 46
2303376 2022-03-26 1047 374 HY 'Nette' Hays KS USA na EM08js 1022 635 22
2303358 2022-03-26 1045 358 SIT Sitka AK ALS na CO26fu 3838 2385 329
2303367 2022-03-26 1043 353 LLD Lanai HI HWA oc BL10ms 2000 5398 3354 271
2303366 2022-03-26 1038 332 POA Pahoa HI HWA oc BK29mn 400 5259 3268 269
2303401 2022-03-26 1029 392 PNA 'Wenz' Pinedale WY USA na DN52ct 25 1487 924 340
2303339 2022-03-26 1021 359 YAZ Tofino BC CAN na CN79db 2784 1730 324
2303338 2022-03-26 1016 312 UNT Naramata (Penticton) BC CAN na DN09eo 2522 1567 332
2303394 2022-03-26 0445 329 CH 'Ashly' Charleston SC USA na EM92wx 400 2246 1396 76
2303392 2022-03-26 0442 376 LC 'Pickl' Columbus OH USA na EM89nv 25 2164 1344 54
2303360 2022-03-26 0438 375 DS Searcy AR USA na EM45cc 25 1232 766 61
2303391 2022-03-26 0438 379 BRA 'Broad River' Asheville NC USA na EM85sg 100 2055 1277 68
2303364 2022-03-26 0435 344 JA 'Dinns' Jacksonville FL USA na EM90cl 400 2098 1304 84
2303348 2022-03-26 0433 335 YLD Chapleau ON CAN na EN87hs 100 2598 1614 36
2303363 2022-03-26 0431 332 FIS 'Fish Hook' Key West FL USA na EL94cn 400 2252 1399 101
2303356 2022-03-26 0425 378 RJ Roberval QC CAN na FN38un 500 3333 2071 43
2303354 2022-03-26 0420 340 YY Mont Joli QC CAN na FN58un 500 3603 2239 45
2303355 2022-03-26 0416 360 PN Port-Menier / Ile Anticosti QC CAN na FN79tu 500 3920 2435 45
2303343 2022-03-26 0409 340 ZJT Stephenville NL CAN na GN08tn 4304 2674 48
2303384 2022-03-26 0403 356 ODX Ord NE USA na EN01mo 25 1321 821 17
2303336 2022-03-26 0355 382 YE Fort Nelson BC CAN na CO88pt 100 3476 2160 341
2303380 2022-03-26 0353 379 DL 'Pykla' Duluth MN USA na EN36tu 2077 1291 24
2303335 2022-03-26 0352 374 EX Rutland (Kelowna) BC CAN na DN09hw 2541 1579 333
2303382 2022-03-26 0340 386 HAU 'Hauser' Helena MT USA na DN46cn 25 1932 1201 341
2303337 2022-03-26 0340 389 YWB Kelowna BC CAN na DN09et 2540 1578 332
2303368 2022-03-26 0338 383 PI 'Tyhee' Pocatello ID USA na DN32rx 400 1608 999 333
2303331 2022-03-26 0336 376 K2 Olds-Didsbury AB CAN na DO21wr 2526 1570 343
2303402 2022-03-26 0335 380 GC 'Deryk' Gillette WY USA na DN74fg 25 1556 967 354
2303383 2022-03-26 0335 383 CNP Chappell NE USA na DN81sb 25 1196 743 5
2303353 2022-03-26 0334 371 GW Jarpik Kuujjuarapik QC CAN na FO15cg 500 3443 2139 28
2303379 2022-03-26 0333 365 AA 'Kenie' Fargo MN USA na EN17oa 100 1946 1209 15
2303330 2022-03-26 0331 361 E3 Wabasca AB CAN na DO35cx 2957 1837 347
2303381 2022-03-26 0329 362 RPX Round Up MT USA na DN56rl 25 1841 1144 348
2303344 2022-03-26 0327 356 ZF Yellowknife NT CAN na DP22sj 1000 3646 2265 350
2303373 2022-03-26 0325 348 MC 'Surff' Mason City IA USA na EN33ib 25 1688 1049 30
2303347 2022-03-26 0324 346 YXL Sioux Lookout ON CAN na EO40bc 1000 2408 1496 20
2303334 2022-03-26 0324 344 XX Abbotsford BC CAN na CN89sa 2608 1620 328
2303375 2022-03-26 0322 341 OIN Oberlin KS USA na DM99rt 25 1090 677 14
2303400 2022-03-26 0322 344 POY Powell WY USA na DN54ou 25 1672 1039 345
2303352 2022-03-26 0321 338 YPX Puvirnituq QC CAN na FP10ib 500 3842 2387 23
2303395 2022-03-26 0319 335 BK 'CHRLZ' Brookings SD USA na EN14mi 25 1666 1035 18
2303346 2022-03-26 0318 334 YER Fort Severn ON CAN na EO65ex 195 3116 1936 19
2303333 2022-03-26 0317 332 XT Terrace BC CAN na CO54ri 3323 2064 330
2303329 2022-03-26 0314 329 X2 Athabasca AB CAN na DO34jr 2814 1748 347
2303328 2022-03-26 0314 328 5J Coronation AB CAN na DO42gb 141 2496 1551 347
2303332 2022-03-26 0312 326 DC Princeton BC CAN na CN99rl 500 2553 1586 331
2303327 2022-03-26 0310 311 9Y Pincher Creek AB CAN na DN39am 50 2298 1428 340
2303326 2022-03-26 0307 308 ZZD Calmar (Edmonton Intl Apt) AB CAN na DO33eg 2671 1660 345
2303341 2022-03-26 0305 300 YIV Island Lake MB CAN na EO23qu 500 2713 1686 13
2303393 2022-03-26 0255 350 RG 'Gally' Oklahoma City OK USA na EM15eh 400 791 492 44
2303386 2022-03-26 0253 347 AFK Nebraska City NE USA na EN20bo 1341 833 29
2303359 2022-03-26 0247 338 RYN 'Ryan' Tucson AZ USA na DM42kd 400 732 455 287
2303349 2022-03-26 0245 332 QT Thunder Bay ON CAN na EN58gi 1000 2338 1453 27
2303387 2022-03-26 0244 329 PMV Plattsmouth NE USA na EN20bw 25 1372 852 28
2303385 2022-03-26 0241 305 OI 'Tommi' South Sioux City NE USA na EN12sl 25 1495 929 23
2290158 2022-03-09 1153 353 ZXY Klondike (Whitehorse) YT CAN na CP20lp 23 4081 2535 334
2290157 2022-03-09 1136 329 PJ Robinson (Whitehorse) YT CAN na CP20nk 100 4058 2522 334
2289541 2022-03-04 0431 400 OHY 'Coney' Cordele GA USA na EM81bx 25 1893 1176 79
2289540 2022-03-04 0407 234 EQQ 'Coweta County' Newnan GA USA na EM73pg 25 1822 1132 74
2287180 2022-02-27 0449 250 YMH Mary's Harbour NL CAN na GO22ch 1000 4571 2840 43
2287196 2022-02-27 0447 257 YR 'Goose' Goose Bay NL CAN na FO93ti 4306 2676 40
2287195 2022-02-27 0436 257 TZ 'Gibraltar Point' Toronto Island ON CAN na FN03ho 25 2600 1615 48
2287177 2022-02-27 0427 248 IL 'Hadin' Wilmington DE USA na FM29en 50 2742 1704 60
2287187 2022-02-27 0424 253 DD 'Cobbs' Columbus OH USA na EM89lr 49 2143 1332 55
2287192 2022-02-27 0421 257 ME 'Maxtn' Maxton NC USA na FM04gr 25 2318 1441 71
2287188 2022-02-27 0419 254 LLW 'Woodville' Elizabeth City NC USA na FM16ug 50 2621 1629 68
2287169 2022-02-27 0416 240 CJ 'Calde' Springfield IL USA na EM59et 1654 1028 46
2287183 2022-02-27 0409 251 BR 'Larew' Brainerd MN USA na EN26xk 25 1973 1226 22
2287176 2022-02-26 1151 248 QL Lethbridge AB CAN na DN39no 2274 1413 342
2287182 2022-02-26 1141 251 JZY Macomb IL USA na EN40rm 25 1640 1019 42
2287191 2022-02-26 1141 257 LW Kelowna BC CAN na DO00hb 50 2552 1586 333
2287171 2022-02-26 1129 242 ZT Port Hardy BC CAN na CO60gq 500 2997 1862 325
2287202 2022-02-26 0512 423 SIF 'Slammer' Reidsville NC USA na FM06cj 25 2313 1437 66
2287178 2022-02-26 0454 250 UGS 'University' Athens / Albany OH USA na EM89wg 25 2198 1366 57
2287170 2022-02-26 0454 242 XC Cranbrook BC CAN na DN29cq 400 2376 1476 338
2287200 2022-02-26 0448 420 CFY 'Evans' Lake City SC USA na FM03cu 25 2281 1417 73
2287198 2022-02-26 0447 420 TU 'Veron' Tupelo MS USA na EM54oe 25 1464 910 69
2287173 2022-02-26 0441 245 PWF 'Sportys' Batavia OH USA na EM79vb 25 2022 1256 56
2287197 2022-02-26 0437 258 ZSJ Sandy Lake ON CAN na EO33hb 500 2660 1653 15
2287190 2022-02-26 0432 257 XE Saskatoon SK CAN na DO62oe 25 2441 1516 354
2287181 2022-02-26 0430 251 YCD Nanaimo BC CAN na CN89bd 500 2691 1672 326
2287189 2022-02-26 0417 256 EB 'Namao' Edmonton AB CAN na DO33gq 50 2711 1684 345
2287186 2022-02-26 0416 253 GB 'Garno' Marshall MN USA na EN24bm 25 1718 1068 21
2287179 2022-02-26 0414 250 FO Flin Flon MB CAN na DO94dq 1600 2710 1684 2
2287201 2022-02-25 1951 420 FQ 'Montz' Fairmont MN USA na EN23tp 25 1692 1051 26
2287199 2022-02-25 1950 420 PK Olathe KS USA na EM28ps 25 1246 774 38
2287193 2022-02-25 1947 257 JYR York NE USA na EN10ev 25 1294 804 23
2287174 2022-02-25 1944 245 FS 'Rokky' Sioux Falls SD USA na EN13ol 100 1582 983 20
2287172 2022-02-25 1942 242 EL 'Valtr' El Paso TX USA na DM61uu 400 297 185 304
2287185 2022-02-25 1931 253 OC 'Nados' Nacogdoches TX USA na EM21pl 25 867 539 79
2287184 2022-02-25 1930 251 AM 'Pande' Amarillo TX USA na DM95cd 400 562 349 18
2287175 2022-02-25 1929 248 WG Winnipeg MB CAN na EN19hv 250 2237 1390 11
2287194 2022-02-25 1921 257 DT 'Pinck' Denton TX USA na EM13jg 25 694 431 60
2277540 2022-02-09 1203 205 YEU Eureka NU CAN na EQ79bx 5578 3466 3
2275996 2022-02-03 0429 219 W7 'Pabok' Du Rocher-Percé QC CAN na FN78rj 3859 2398 47
2273523 2022-01-31 0431 515 PN 'Ponca' Ponca City OK USA na EM16kt 25 942 585 38
2273517 2022-01-31 0419 266 SLE 'Turno' Salem OR USA na CN84mu 50 2328 1447 319
2273524 2022-01-31 0402 515 OS 'Fuler' Columbus OH USA na EN80jb 25 2145 1333 54
2273526 2022-01-31 0354 516 YWA Petawawa ON CAN na FN15iv 25 2863 1779 45
2273527 2022-01-30 1152 530 ADK 'Mount Moffett' Adak Island AK ALS na AO11pu 6272 3897 314
2273525 2022-01-30 1143 515 CL 'Elwha' Port Angeles WA USA na CN88dd 2607 1620 324
2273514 2022-01-30 0411 263 JNX 'Jurly' Smithfield NC USA na FM05sl 2417 1502 69
2273522 2022-01-30 0356 269 TII Tiffin OH USA na EN81jc 2194 1363 51
2273508 2022-01-30 0349 260 GHJ 'Stonia' Gastonia NC USA na EM95ke 2173 1350 69
2273518 2022-01-30 0338 266 ZMM 'Mirabel' Colomban (Montreal) QC CAN na FN25vq 20 3068 1906 47
2273519 2022-01-30 0330 266 ZHM Hamilton (Binbrook) ON CAN na FN03cd 50 2547 1583 49
2273512 2022-01-30 0321 263 LQL 'Lakeland' Willoughby OH USA na EN91hq 25 2360 1466 51
2273515 2022-01-29 1041 266 ICK 'Nichols' Annette Island AK ALS na CO45eb 3523 2189 329
2273511 2022-01-29 0449 263 QY Sydney NS CAN na GN06af 500 4140 2573 52
2273510 2022-01-29 0436 263 YGK Kingston ON CAN na FN14qh 1000 2833 1760 49
2273513 2022-01-29 0429 263 GR 'Knobs' Grand Rapids MI USA na EN72hv 2141 1330 44
2273509 2022-01-29 0422 260 CL 'Rowdy' College Station TX USA na EM10tl 703 437 87
2273520 2022-01-29 0419 267 HET Henryetta OK USA na EM15xj 25 909 565 49
2273507 2022-01-29 0417 260 ST 'Tario' Saint Joseph MO USA na EM29nq 25 1311 815 35
2273521 2022-01-29 0411 269 UDE Delta MB CAN na EO00ud 50 2247 1396 10
2273516 2022-01-29 0402 266 VR Vancouver BC CAN na CN89le 50 2651 1647 327
2275995 2022-01-02 0332 230 AC Pleasant Lake (Yarmouth) NS CAN na FN63xu 3622 2251 54
2250090 2021-12-29 0413 277 OT 'Wondd' Worthington MN USA na EN23go 25 1643 1021 24
2250091 2021-12-29 0406 337 FF 'Hamre' Fergus Falls MN USA na EN16xf 25 1885 1171 18
2250123 2021-12-29 0322 220 HUR Person NC USA na FM06lf 25 2376 1477 67
2250125 2021-12-29 0319 271 HXO Huntsboro NC USA na FM06qh 25 2415 1500 67
2250124 2021-12-29 0317 257 ME 'Maxtn' Maxton NC USA na FM04gr 25 2318 1441 71
2250106 2021-12-29 0315 329 PMV Plattsmouth NE USA na EN20bw 25 1372 852 28
2250089 2021-12-28 1117 274 RG Red Wing MN USA na EN34qo 25 1858 1154 28
2250796 2021-12-28 1110 395 OS 'Pober' Oshkosh WI USA na EN53ru 2009 1248 37
2250068 2021-12-28 1105 385 HO 'Hossy' Hot Springs AR USA na EM34jk 50 1085 674 62
2250088 2021-12-28 1103 379 DL 'Pykla' Duluth MN USA na EN36tu 2077 1291 24
2250104 2021-12-28 1058 359 GGF Grant NE USA na DN90du 1181 734 8
2250103 2021-12-28 1056 347 AFK Nebraska City NE USA na EN20bo 1341 833 29
2250098 2021-12-28 1031 365 SYZ Shelbyville IL USA na EM59nj 25 1682 1045 49
2250097 2021-12-28 1027 334 LH 'Egrow' Bloomington IL USA na EN50nn 1754 1090 45
2250096 2021-12-28 1025 329 AAA 'Abraham' Lincoln IL USA na EN50hd 25 1693 1052 46
2250093 2021-12-28 1022 251 JZY Macomb IL USA na EN40rm 25 1640 1019 42
2250095 2021-12-28 1017 263 CVM 'Civic Memorial' Alton IL USA na EM48xv 1567 974 49
2250094 2021-12-28 1014 257 FWC 'Wayne County' Fairfield IL USA na EM58tj 25 1664 1034 53
2250067 2021-12-28 0518 376 LC 'Pickl' Columbus OH USA na EM89nv 25 2164 1344 54
2250793 2021-12-28 0510 407 FR 'Frikk' Farmingdale NY USA na FN30gs 2952 1834 58
2250792 2021-12-28 0508 335 SW 'Neely' Newburgh NY USA na FN21vl 2911 1809 56
2250122 2021-12-28 0501 423 SIF 'Slammer' Reidsville NC USA na FM06cj 25 2313 1437 66
2250121 2021-12-28 0459 417 SLP 'First River' Shelby NC USA na EM95eg 25 2130 1323 69
2250120 2021-12-28 0457 417 HQT 'Harnett' Coats NC USA na FM05pk 25 2394 1488 69
2250119 2021-12-28 0454 412 CTZ Clinton NC USA na FM04tx 25 2419 1503 71
2250795 2021-12-28 0439 368 TEC 'Tech' Blacksburg VA USA na EM97te 25 2279 1416 64
2250790 2021-12-28 0438 293 UI Quincy IL USA na EM49iv 25 1546 961 43
2250791 2021-12-28 0433 356 HEU 'Hunter' Schenectady NY USA na FN32au 2975 1849 53
2250118 2021-12-28 0426 346 VU 'Aller' Albemarle NC USA na EM95xl 2275 1414 69
2250794 2021-12-28 0424 323 GTN Georgetown VA USA na FM18kw 2600 1616 61
2250065 2021-12-28 0420 248 IL 'Hadin' Wilmington DE USA na FM29en 50 2742 1704 60
2250069 2021-12-28 0414 385 EMR 'Emory' Augusta GA USA na EM93al 400 2078 1291 74
2250117 2021-12-28 0410 379 BRA 'Broad River' Asheville NC USA na EM85sg 100 2055 1277 68
2250063 2021-12-27 1123 408 MW 'Pelly' Moses Lake WA USA na DN07ic 2292 1424 328
2250064 2021-12-27 1119 383 PI 'Tyhee' Pocatello ID USA na DN32rx 400 1608 999 333
2252406 2021-12-27 1052 200 YJ Sydney BC CAN na CN88hp 100 2626 1632 326
2250059 2021-12-27 1041 356 MEF Medford OR USA na CN82nj 2168 1347 313
2250116 2021-12-27 0505 410 JU 'Ashee' West Jefferson NC USA na EM96ik 25 2182 1356 65
2250080 2021-12-27 0501 400 CI 'Koloe' Sault Ste. Marie MI USA na EN76rh 25 2425 1507 37
2250079 2021-12-27 0455 382 IRS Sturgis MI USA na EN71gt 25 2069 1286 47
2250078 2021-12-27 0454 381.5 SJX 'St James' Beaver Island MI USA na EN75fq 25 2321 1442 37
2250206 2021-12-27 0453 373 2Q Mont-Laurier QC CAN na FN26go 25 3024 1879 45
2250062 2021-12-27 0450 351 MSQ Culpeper VA USA na FM18bk 25 2524 1568 62
2250190 2021-12-27 0447 334 YER Fort Severn ON CAN na EO65ex 195 3116 1936 19
2250205 2021-12-27 0444 323 KR Squaw Schefferville QC CAN na FO64ot 250 3986 2477 36
2250204 2021-12-27 0442 317 ZMX Janvier / Mirabel (Montreal) QC CAN na FN35ar 20 3088 1919 48
2250797 2021-12-27 0440 304 ZQM Riverview (Moncton) NB CAN na FN76oa 100 3771 2343 51
2250092 2021-12-27 0438 293 UI Quincy IL USA na EM49iv 25 1546 961 43
2250077 2021-12-27 0436 278 ADG Adrian MI USA na EN71xu 50 2172 1350 48
2250189 2021-12-27 0434 276 YEL Elliot Lake ON CAN na EN86qi 250 2543 1580 39
2250203 2021-12-27 0430 275 R1 Thetford Mines QC CAN na FN46ib 25 3293 2046 48
2250202 2021-12-27 0428 272 ZMR 'Mirabel' Montreal QC CAN na FN25wo 200 3070 1908 48
2250201 2021-12-27 0425 266 ZMM 'Mirabel' Colomban (Montreal) QC CAN na FN25vq 20 3068 1906 47
2250188 2021-12-27 0424 263 YGK Kingston ON CAN na FN14qh 1000 2833 1760 49
2250187 2021-12-27 0422 257 TZ 'Gibraltar Point' Toronto Island ON CAN na FN03ho 25 2600 1615 48
2250186 2021-12-27 0420 236 OW Ramsayville (Ottawa) ON CAN na FN25fi 60 2958 1838 47
2250200 2021-12-27 0418 220 BX Blanc Sablon / Lourdes de Blanc Sablon QC CAN na GO11jk 2000 4454 2767 44
2250185 2021-12-27 0416 215 YTR Trenton ON CAN na FN14he 25 2772 1723 48
2250071 2021-12-27 0415 329 YEK Arviat NU CAN na EP21xc 500 3492 2170 8
2250199 2021-12-27 0410 356 YBG Bagotville QC CAN na FN48ki 3402 2114 44
2250198 2021-12-27 0407 332 YFM La Grande 4 QC CAN na FO33dr 2000 3540 2200 34
2250197 2021-12-27 0404 230 QB Quebec QC CAN na FN46gr 200 3308 2055 47
2250196 2021-12-27 0401 218 YUY Rouyn QC CAN na FN08me 500 2886 1793 39
2250195 2021-12-27 0400 209 MT 'Chiboo' Chibougamau (Chapais) QC CAN na FN29st 500 3260 2026 40
2250184 2021-12-27 0356 516 YWA Petawawa ON CAN na FN15iv 25 2863 1779 45
2250194 2021-12-27 0349 360 PN Port-Menier / Ile Anticosti QC CAN na FN79tu 500 3920 2435 45
2250066 2021-12-27 0345 254 CAT Chatham NJ USA na FN20sr 2869 1783 58
2250193 2021-12-27 0341 351 YKQ Waskaganish QC CAN na FO01pl 500 3120 1939 34
2250192 2021-12-27 0339 340 YY Mont Joli QC CAN na FN58un 500 3603 2239 45
2250076 2021-12-26 1141 239 YXQ Beaver Creek YT CAN na BP92nj 4444 2761 334
2250085 2021-12-26 1141 257 HCY Cowley WY USA na DN54sv 50 1669 1037 346
2250073 2021-12-26 1139 254 EV Inuvik NT CAN na CP38eh 500 4643 2885 343
2250075 2021-12-26 1136 365 MA Mayo YT CAN na CP23bp 500 4337 2695 337
2250072 2021-12-26 1128 356 ZF Yellowknife NT CAN na DP22sj 1000 3646 2265 350
2250087 2021-12-26 1124 420 FQ 'Montz' Fairmont MN USA na EN23tp 25 1692 1051 26
2250115 2021-12-26 1121 402 M3 Kindersley SK CAN na DO51jm 2397 1489 350
2250180 2021-12-26 1119 401 YPO Peawanuck ON CAN na EO74gx 125 3097 1924 22
2250136 2021-12-26 1114 391 4W Kelsey MB CAN na EO16ra 25 2909 1807 9
2250058 2021-12-26 1112 385 OCC 'Ocean Cape' Yakutat AK ALS na CO09dn 4211 2617 330
2250084 2021-12-26 1110 380 GC 'Deryk' Gillette WY USA na DN74fg 25 1556 967 354
2250179 2021-12-26 1108 376 YAG Fort Frances ON CAN na EN38fq 40 2212 1375 20
2250191 2021-12-26 1107 371 GW Jarpik Kuujjuarapik QC CAN na FO15cg 500 3443 2139 28
2250789 2021-12-26 1106 529 SQM 'Sumner Strait' Level Island AK ALS na CO36kl 400 3696 2296 330
2250105 2021-12-26 1059 356 ODX Ord NE USA na EN01mo 25 1321 821 17
2250114 2021-12-26 1057 347 PA Prince Albert SK CAN na DO73cf 25 2549 1584 356
2250135 2021-12-26 1055 336 LF La Salle MB CAN na EN19ip 50 2212 1374 12
2250161 2021-12-26 1054 332 XH Medicine Hat AB CAN na DO40oa 50 2265 1408 346
2250160 2021-12-26 1052 329 X2 Athabasca AB CAN na DO34jr 2814 1748 347
2252407 2021-12-26 1051 326 XJ Fort St. John BC CAN na CO96ng 100 3179 1975 339
2250159 2021-12-26 1045 307 M5 Manning AB CAN na DO16ew 3147 1955 343
2250134 2021-12-26 1043 300 YIV Island Lake MB CAN na EO23qu 500 2713 1686 13
2250158 2021-12-26 1042 295 8C Fairview AB CAN na DO06sb 3083 1916 342
2250102 2021-12-26 1041 293 FBY Fairbury NE USA na EN10ke 50 1245 774 26
2250083 2021-12-26 1040 293 TOR Torrington WY USA na DN72wb 25 1302 809 358
2250157 2021-12-26 1038 292 ZET Devon (Edmonton Intl Apt) AB CAN na DO33di 25 2682 1666 345
2250113 2021-12-26 1037 287 YSF Stony Rapids SK CAN na DO79bg 3219 2000 357
2250133 2021-12-26 1036 284 QD The Pas MB CAN na DO93lx 500 2636 1638 3
2250131 2021-12-26 1034 233 BR Brandon MB CAN na DN99xv 25 2194 1363 7
2250082 2021-12-26 1033 275 GEY Greybull WY USA na DN54xm 50 1620 1007 347
2250178 2021-12-26 1030 258 ZSJ Sandy Lake ON CAN na EO33hb 500 2660 1653 15
2250132 2021-12-26 1025 236 ZHT 'Forks' Winnipeg MB CAN na EN19ku 50 2237 1390 12
2250130 2021-12-26 1021 224 DN Dauphin MB CAN na DO91xc 25 2327 1446 6
2250074 2021-12-26 1017 214 DA Dawson YT CAN na CP04ja 4487 2788 336
2250129 2021-12-26 1015 212 YGX Gillam MB CAN na EO26pi 2975 1849 11
2250112 2021-12-26 1009 204 ZQR 'Findlay' Regina SK CAN na DO70rk 20 2234 1388 358
2250128 2021-12-26 0507 269 UDE Delta MB CAN na EO00ud 50 2247 1396 10
2250148 2021-12-26 0502 200 YDL Dease Lake BC CAN na CO58ak 3704 2301 335
2252405 2021-12-26 0458 405 9G Sundre AB CAN na DO21ps 500 2547 1583 342
2250061 2021-12-26 0455 404 MOG Montague CA USA na CN81sr 25 2100 1305 312
2250101 2021-12-26 0454 400 AHQ Wahoo NE USA na EN11qf 1366 849 25
2250111 2021-12-26 0452 397 ZSS Yellowhead (Saskatoon) SK CAN na DO62pf 25 2445 1519 355
2250081 2021-12-26 0450 392 PNA 'Wenz' Pinedale WY USA na DN52ct 25 1487 924 340
2250147 2021-12-26 0445 344 XX Abbotsford BC CAN na CN89sa 2608 1620 328
2250177 2021-12-26 0443 332 QT Thunder Bay ON CAN na EN58gi 1000 2338 1453 27
2250146 2021-12-26 0442 326 DC Princeton BC CAN na CN99rl 500 2553 1586 331
2250145 2021-12-26 0440 312 UNT Naramata (Penticton) BC CAN na DN09eo 2522 1567 332
2250144 2021-12-26 0437 290 YYF Penticton BC CAN na DN09el 500 2511 1560 332
2250156 2021-12-26 0434 221 QU Grande Prairie AB CAN na DO05od 50 3004 1867 340
2250143 2021-12-26 0425 389 YWB Kelowna BC CAN na DN09et 2540 1578 332
2250100 2021-12-26 0424 383 CNP Chappell NE USA na DN81sb 25 1196 743 5
2250142 2021-12-26 0423 382 YE Fort Nelson BC CAN na CO88pt 100 3476 2160 341
2250141 2021-12-26 0418 374 EX Rutland (Kelowna) BC CAN na DN09hw 2541 1579 333
2250110 2021-12-26 0417 372 ZPA Glass (Prince Albert) SK CAN na DO73ff 25 2548 1583 357
2250140 2021-12-26 0416 368 SX Skookum (Cranbrook) BC CAN na DN29cw 500 2400 1491 338
2250086 2021-12-26 0416 365 AA 'Kenie' Fargo MN USA na EN17oa 100 1946 1209 15
2250155 2021-12-26 0414 362 6T Foremost AB CAN na DN49gl 41 2224 1382 345
2250109 2021-12-26 0412 356 ZXE Barnes (Saskatoon) SK CAN na DO62rd 39 2434 1512 355
2250176 2021-12-26 0411 346 YXL Sioux Lookout ON CAN na EO40bc 1000 2408 1496 20
2250154 2021-12-26 0410 332 XH Medicine Hat AB CAN na DO40oa 50 2265 1408 346
2250139 2021-12-26 0409 325 YJQ Bella Bella (Campbell Island) BC CAN na CO52we 3140 1951 327
2250153 2021-12-26 0407 320 YQF Red Deer AB CAN na DO32bd 50 2562 1592 343
2250152 2021-12-26 0406 311 9Y Pincher Creek AB CAN na DN39am 50 2298 1428 340
2250151 2021-12-26 0404 308 ZZD Calmar (Edmonton Intl Apt) AB CAN na DO33eg 2671 1660 345
2250108 2021-12-26 0403 257 XE Saskatoon SK CAN na DO62oe 25 2441 1516 354
2250138 2021-12-26 0402 251 YCD Nanaimo BC CAN na CN89bd 500 2691 1672 326
2250127 2021-12-26 0401 250 FO Flin Flon MB CAN na DO94dq 1600 2710 1684 2
2250150 2021-12-26 0400 248 QL Lethbridge AB CAN na DN39no 2274 1413 342
2250060 2021-12-26 0357 245 FS 'Rokky' Sioux Falls SD USA na EN13ol 100 1582 983 20
2250137 2021-12-26 0356 242 XC Cranbrook BC CAN na DN29cq 400 2376 1476 338
2250107 2021-12-26 0354 238 K5 Maple Creek SK CAN na DN59gv 2225 1383 349
2250183 2021-12-26 0353 362 SB Sudbury ON CAN na EN96mp 400 2665 1656 40
2250149 2021-12-26 0352 227 9X Brooks AB CAN na DO40ap 50 2358 1465 345
2250182 2021-12-26 0343 353 QG Saint Clair Beach (Windsor) ON CAN na EN82nh 25 2281 1417 48
2250181 2021-12-26 0337 335 YLD Chapleau ON CAN na EN87hs 100 2598 1614 36
2250099 2021-12-26 0313 392 FMZ 'Beklof' Fairmont NE USA na EN10fo 25 1268 788 24
2250057 2021-12-26 0251 391 DDP San Juan / Dorado / Luiz Munoz Marin Intl PR PTR ca FK68tl 2000 3982 2474 100
2250070 2021-12-26 0240 407 OOC 'Campi' Natchitoches LA USA na EM31lp 25 1026 638 79
2250175 2021-12-25 1838 400 ROB 'Robinson' Waco TX USA na EM11lm 649 403 76
2250174 2021-12-25 1831 368 AN 'Alamo' San Antonio TX USA na EL09ro 400 504 313 98
2250173 2021-12-25 1829 365 FT 'Mufin' Fort Worth TX USA na EM12hv 25 663 412 63
2250172 2021-12-25 1828 359 SDR Snyder TX USA na DM92mq 25 368 228 44
2250171 2021-12-25 1827 353 AB 'Tomhi' Abilene TX USA na EM02dh 438 272 59
2250170 2021-12-25 1823 341 DNI Denison TX USA na EM13pt 25 763 474 57
2250169 2021-12-25 1821 326 MA 'Farly' Midland TX USA na DM81ux 400 225 140 36
2250168 2021-12-25 1819 278 IL 'Iresh' Killeen TX USA na EM11da 25 578 359 81
2250167 2021-12-25 1813 257 DT 'Pinck' Denton TX USA na EM13jg 25 694 431 60
2250166 2021-12-25 1812 253 OC 'Nados' Nacogdoches TX USA na EM21pl 25 867 539 79
2250165 2021-12-25 1810 251 AM 'Pande' Amarillo TX USA na DM95cd 400 562 349 18
2250126 2021-12-25 1809 248 WG Winnipeg MB CAN na EN19hv 250 2237 1390 11
2250164 2021-12-25 1807 234 TX 'Tecco' Texarkana AR USA na EM33am 25 985 612 66
2250163 2021-12-25 1806 215 CSZ 'Crossroads' Athens TX USA na EM22ab 25 761 473 73
2250162 2021-12-25 1804 212 LIU Littlefield TX USA na DM83tw 25 418 260 17
2230780 2021-12-01 1143 355 AUB 'Saldo' King Salmon AK ALS na BO18or 5058 3143 324
2230779 2021-12-01 1102 360 OX Iwo Jima VOI as QL04ps 1250 10769 6691 304
2226820 2021-11-29 1022 317 ZZR 'Trenton (Apt)' Severn ON CAN na FN14eb 50 2749 1708 49
2226821 2021-11-29 1019 317 ZMX Janvier / Mirabel (Montreal) QC CAN na FN35ar 20 3088 1919 48
2226778 2021-11-29 0356 271 HXO Huntsboro NC USA na FM06qh 25 2415 1500 67
2226809 2021-11-29 0341 300 YIV Island Lake MB CAN na EO23qu 500 2713 1686 13
2226801 2021-11-29 0337 287 YSF Stony Rapids SK CAN na DO79bg 3219 2000 357
2226793 2021-11-29 0315 280 QX Gander NL CAN na GN28px 1000 4577 2844 48
2226779 2021-11-29 0307 272 ZMR 'Mirabel' Montreal QC CAN na FN25wo 200 3070 1908 48
2226813 2021-11-28 1053 305 PEE 'Peters Creek' Talkeetna AK ALS na BP42wh 4850 3014 330
2226786 2021-11-28 1041 276 YPC Paulatuk NT CAN na CP76xi 4231 2629 346
2226818 2021-11-28 1034 312 UNT Naramata (Penticton) BC CAN na DN09eo 2522 1567 332
2226810 2021-11-28 1027 302 6K Vernon BC CAN na DO00ii 25 2574 1600 334
2226798 2021-11-28 1026 283 DUT 'Dutch Harbor' Unalaska AK ALS na AO63rv 1000 5579 3466 316
2226795 2021-11-28 1025 281 CRN 'Cairn Mountain' Sparrevohn AK ALS na BP21fc 5066 3148 327
2226788 2021-11-28 1023 277 ACE 'Kachemak' Homer AK ALS na BO49gp 4801 2983 326
2226817 2021-11-28 1019 311 9Y Pincher Creek AB CAN na DN39am 50 2298 1428 340
2226815 2021-11-28 1014 307 M5 Manning AB CAN na DO16ew 3147 1955 343
2226802 2021-11-28 1011 290 YYF Penticton BC CAN na DN09el 500 2511 1560 332
2226804 2021-11-28 1006 292 ZET Devon (Edmonton Intl Apt) AB CAN na DO33di 25 2682 1666 345
2226803 2021-11-28 1002 290 QR Regina SK CAN na DO70ri 100 2225 1382 358
2226819 2021-11-28 0357 314 VTN Valentine NE USA na DN92ru 25 1418 881 10
2226812 2021-11-28 0352 305 OI 'Tommi' South Sioux City NE USA na EN12sl 25 1495 929 23
2226816 2021-11-28 0348 308 ZZD Calmar (Edmonton Intl Apt) AB CAN na DO33eg 2671 1660 345
2226811 2021-11-28 0346 302 HO 'Beady' Huron SD USA na EN04tk 25 1634 1015 15
2226808 2021-11-28 0342 295 8C Fairview AB CAN na DO06sb 3083 1916 342
2226805 2021-11-28 0340 293 UI Quincy IL USA na EM49iv 25 1546 961 43
2226791 2021-11-28 0336 278 ADG Adrian MI USA na EN71xu 50 2172 1350 48
2226796 2021-11-28 0335 281 CX 'Alibi' Conroe TX USA na EM20gk 25 791 492 87
2226799 2021-11-28 0332 284 BT 'Rundi' Baton Rouge LA USA na EM40jn 1198 744 85
2226790 2021-11-28 0329 278 AUR 'Sulfy' Sulphur LA USA na EM30ge 25 984 611 88
2226789 2021-11-28 0327 277 OT 'Wondd' Worthington MN USA na EN23go 25 1643 1021 24
2226787 2021-11-28 0323 276 YEL Elliot Lake ON CAN na EN86qi 250 2543 1580 39
2226784 2021-11-28 0321 275 HIN 'Whitney' Chadron NE USA na DN82kt 25 1386 861 1
2226781 2021-11-28 0317 272 OLY 'Olney' Olney-Noble IL USA na EM58vr 25 1694 1053 52
2226780 2021-11-28 0311 272 RH 'Arsha' Rhinelander WI